Flight Briefing for CPX404

Departure Arrival
Nashville International Airport (KBNA)
Click to view FAA NOTAMS
Louis Armstrong New Orleans International Airport (KMSY)
Click to view FAA NOTAMS
Departure Time Arrival Time
N/A N/A
Aircraft Distance
B757-200SF 410nm
Departure METAR Arrival METAR
KBNA 212253Z 16010KT 10SM FEW060 31/17 A2986 RMK AO2 SLP105 T03110167 KMSY 212253Z 16012G18KT 10SM SCT030 29/22 A2983 RMK AO2 SLP106 T02940217
Suggested Route
LBY MEI IGB HRTUN CHSNE2


View recent IFR Routes data
Notes



Charts and Procedures

Charts for KBNA
No chart available
Charts for KMSY
No chart available

Windy.com Weather Map